sensor_id;sensor_type;location;lat;lon;timestamp;P1;durP1;ratioP1;P2;durP2;ratioP2
30723;SDS011;17473;52.286;20.930;2023-06-14T00:01:35;9.02;;;5.32;;
30723;SDS011;17473;52.286;20.930;2023-06-14T00:04:02;10.70;;;4.90;;
30723;SDS011;17473;52.286;20.930;2023-06-14T00:06:31;9.27;;;4.95;;
30723;SDS011;17473;52.286;20.930;2023-06-14T00:09:00;10.10;;;4.88;;
30723;SDS011;17473;52.286;20.930;2023-06-14T00:11:27;6.93;;;4.53;;
30723;SDS011;17473;52.286;20.930;2023-06-14T00:13:55;7.03;;;4.50;;
30723;SDS011;17473;52.286;20.930;2023-06-14T00:16:23;9.25;;;5.25;;
30723;SDS011;17473;52.286;20.930;2023-06-14T00:18:50;10.60;;;5.07;;
30723;SDS011;17473;52.286;20.930;2023-06-14T00:21:21;9.18;;;4.85;;
30723;SDS011;17473;52.286;20.930;2023-06-14T00:23:48;8.15;;;4.68;;
30723;SDS011;17473;52.286;20.930;2023-06-14T00:26:16;7.32;;;4.50;;
30723;SDS011;17473;52.286;20.930;2023-06-14T00:28:43;6.72;;;4.80;;
30723;SDS011;17473;52.286;20.930;2023-06-14T00:31:10;9.38;;;4.88;;
30723;SDS011;17473;52.286;20.930;2023-06-14T00:33:37;6.05;;;4.47;;
30723;SDS011;17473;52.286;20.930;2023-06-14T00:36:05;5.18;;;4.30;;
30723;SDS011;17473;52.286;20.930;2023-06-14T00:38:32;9.85;;;4.82;;
30723;SDS011;17473;52.286;20.930;2023-06-14T00:40:59;7.68;;;4.53;;
30723;SDS011;17473;52.286;20.930;2023-06-14T00:43:26;6.50;;;4.70;;
30723;SDS011;17473;52.286;20.930;2023-06-14T00:45:54;7.90;;;5.10;;
30723;SDS011;17473;52.286;20.930;2023-06-14T00:48:21;7.45;;;4.68;;
30723;SDS011;17473;52.286;20.930;2023-06-14T00:50:49;7.75;;;4.70;;
30723;SDS011;17473;52.286;20.930;2023-06-14T00:53:19;12.93;;;4.50;;
30723;SDS011;17473;52.286;20.930;2023-06-14T00:55:49;8.55;;;5.15;;
30723;SDS011;17473;52.286;20.930;2023-06-14T00:58:16;6.93;;;4.65;;
30723;SDS011;17473;52.286;20.930;2023-06-14T01:00:43;6.40;;;4.68;;
30723;SDS011;17473;52.286;20.930;2023-06-14T01:03:11;13.23;;;4.38;;
30723;SDS011;17473;52.286;20.930;2023-06-14T01:05:40;9.65;;;5.07;;
30723;SDS011;17473;52.286;20.930;2023-06-14T01:10:56;6.78;;;4.80;;
30723;SDS011;17473;52.286;20.930;2023-06-14T01:13:38;6.53;;;4.65;;
30723;SDS011;17473;52.286;20.930;2023-06-14T01:16:09;8.25;;;5.50;;
30723;SDS011;17473;52.286;20.930;2023-06-14T01:18:37;6.97;;;4.55;;
30723;SDS011;17473;52.286;20.930;2023-06-14T01:21:04;6.07;;;4.32;;
30723;SDS011;17473;52.286;20.930;2023-06-14T01:23:32;7.13;;;4.85;;
30723;SDS011;17473;52.286;20.930;2023-06-14T01:26:00;6.53;;;4.80;;
30723;SDS011;17473;52.286;20.930;2023-06-14T01:28:29;7.60;;;4.72;;
30723;SDS011;17473;52.286;20.930;2023-06-14T01:31:00;9.20;;;5.22;;
30723;SDS011;17473;52.286;20.930;2023-06-14T01:33:31;5.57;;;4.82;;
30723;SDS011;17473;52.286;20.930;2023-06-14T01:36:00;10.88;;;4.78;;
30723;SDS011;17473;52.286;20.930;2023-06-14T01:38:29;9.95;;;5.30;;
30723;SDS011;17473;52.286;20.930;2023-06-14T01:40:57;9.68;;;6.00;;
30723;SDS011;17473;52.286;20.930;2023-06-14T01:43:26;10.32;;;5.93;;
30723;SDS011;17473;52.286;20.930;2023-06-14T01:45:56;10.43;;;6.10;;
30723;SDS011;17473;52.286;20.930;2023-06-14T01:48:25;9.43;;;5.63;;
30723;SDS011;17473;52.286;20.930;2023-06-14T01:50:53;7.03;;;5.25;;
30723;SDS011;17473;52.286;20.930;2023-06-14T01:53:20;9.35;;;5.95;;
30723;SDS011;17473;52.286;20.930;2023-06-14T01:55:47;6.28;;;5.40;;
30723;SDS011;17473;52.286;20.930;2023-06-14T01:58:15;7.90;;;5.72;;
30723;SDS011;17473;52.286;20.930;2023-06-14T02:00:43;11.32;;;5.97;;
30723;SDS011;17473;52.286;20.930;2023-06-14T02:03:10;13.25;;;5.50;;
30723;SDS011;17473;52.286;20.930;2023-06-14T02:05:39;7.03;;;5.28;;
30723;SDS011;17473;52.286;20.930;2023-06-14T02:08:06;8.82;;;5.97;;
30723;SDS011;17473;52.286;20.930;2023-06-14T02:10:33;7.45;;;5.22;;
30723;SDS011;17473;52.286;20.930;2023-06-14T02:13:02;9.02;;;6.03;;
30723;SDS011;17473;52.286;20.930;2023-06-14T02:15:29;7.10;;;5.28;;
30723;SDS011;17473;52.286;20.930;2023-06-14T02:18:01;8.65;;;5.55;;
30723;SDS011;17473;52.286;20.930;2023-06-14T02:20:29;7.85;;;5.63;;
30723;SDS011;17473;52.286;20.930;2023-06-14T02:22:57;7.97;;;5.28;;
30723;SDS011;17473;52.286;20.930;2023-06-14T02:25:24;6.03;;;5.43;;
30723;SDS011;17473;52.286;20.930;2023-06-14T02:27:54;6.78;;;5.35;;
30723;SDS011;17473;52.286;20.930;2023-06-14T02:30:22;8.25;;;6.03;;
30723;SDS011;17473;52.286;20.930;2023-06-14T02:32:49;12.35;;;6.07;;
30723;SDS011;17473;52.286;20.930;2023-06-14T02:35:17;9.07;;;6.07;;
30723;SDS011;17473;52.286;20.930;2023-06-14T02:37:44;12.30;;;5.78;;
30723;SDS011;17473;52.286;20.930;2023-06-14T02:40:12;9.57;;;6.10;;
30723;SDS011;17473;52.286;20.930;2023-06-14T02:42:39;7.88;;;6.20;;
30723;SDS011;17473;52.286;20.930;2023-06-14T02:45:07;13.18;;;5.65;;
30723;SDS011;17473;52.286;20.930;2023-06-14T02:47:35;9.82;;;6.55;;
30723;SDS011;17473;52.286;20.930;2023-06-14T02:50:02;8.88;;;5.88;;
30723;SDS011;17473;52.286;20.930;2023-06-14T02:52:30;9.13;;;6.10;;
30723;SDS011;17473;52.286;20.930;2023-06-14T02:54:59;12.88;;;5.82;;
30723;SDS011;17473;52.286;20.930;2023-06-14T02:57:26;8.70;;;5.53;;
30723;SDS011;17473;52.286;20.930;2023-06-14T02:59:53;7.72;;;5.75;;
30723;SDS011;17473;52.286;20.930;2023-06-14T03:02:21;10.23;;;5.93;;
30723;SDS011;17473;52.286;20.930;2023-06-14T03:04:48;6.85;;;5.57;;
30723;SDS011;17473;52.286;20.930;2023-06-14T03:07:15;11.50;;;6.57;;
30723;SDS011;17473;52.286;20.930;2023-06-14T03:09:46;9.20;;;5.93;;
30723;SDS011;17473;52.286;20.930;2023-06-14T03:12:15;11.35;;;5.68;;
30723;SDS011;17473;52.286;20.930;2023-06-14T03:14:42;10.93;;;5.88;;
30723;SDS011;17473;52.286;20.930;2023-06-14T03:17:10;8.52;;;6.22;;
30723;SDS011;17473;52.286;20.930;2023-06-14T03:19:37;7.18;;;5.63;;
30723;SDS011;17473;52.286;20.930;2023-06-14T03:22:04;10.77;;;5.97;;
30723;SDS011;17473;52.286;20.930;2023-06-14T03:24:31;6.53;;;5.75;;
30723;SDS011;17473;52.286;20.930;2023-06-14T03:27:03;7.60;;;6.25;;
30723;SDS011;17473;52.286;20.930;2023-06-14T03:29:30;10.82;;;6.32;;
30723;SDS011;17473;52.286;20.930;2023-06-14T03:32:01;9.77;;;6.72;;
30723;SDS011;17473;52.286;20.930;2023-06-14T03:34:29;6.72;;;5.75;;
30723;SDS011;17473;52.286;20.930;2023-06-14T03:36:57;9.25;;;6.15;;
30723;SDS011;17473;52.286;20.930;2023-06-14T03:39:24;9.52;;;5.85;;
30723;SDS011;17473;52.286;20.930;2023-06-14T03:41:51;9.85;;;6.60;;
30723;SDS011;17473;52.286;20.930;2023-06-14T03:44:18;8.77;;;5.85;;
30723;SDS011;17473;52.286;20.930;2023-06-14T03:46:46;10.50;;;5.90;;
30723;SDS011;17473;52.286;20.930;2023-06-14T03:49:13;13.07;;;7.13;;
30723;SDS011;17473;52.286;20.930;2023-06-14T03:51:42;11.27;;;5.85;;
30723;SDS011;17473;52.286;20.930;2023-06-14T03:54:09;11.25;;;6.30;;
30723;SDS011;17473;52.286;20.930;2023-06-14T03:56:56;8.02;;;6.00;;
30723;SDS011;17473;52.286;20.930;2023-06-14T03:59:24;8.05;;;6.18;;
30723;SDS011;17473;52.286;20.930;2023-06-14T04:01:52;10.18;;;6.65;;
30723;SDS011;17473;52.286;20.930;2023-06-14T04:04:20;10.10;;;7.15;;
30723;SDS011;17473;52.286;20.930;2023-06-14T04:06:47;10.52;;;6.45;;
30723;SDS011;17473;52.286;20.930;2023-06-14T04:09:14;9.48;;;5.78;;
30723;SDS011;17473;52.286;20.930;2023-06-14T04:11:42;8.20;;;5.35;;
30723;SDS011;17473;52.286;20.930;2023-06-14T04:14:09;11.27;;;6.03;;
30723;SDS011;17473;52.286;20.930;2023-06-14T04:16:36;7.28;;;5.75;;
30723;SDS011;17473;52.286;20.930;2023-06-14T04:19:04;8.93;;;5.72;;
30723;SDS011;17473;52.286;20.930;2023-06-14T04:21:31;6.57;;;5.85;;
30723;SDS011;17473;52.286;20.930;2023-06-14T04:24:01;7.32;;;5.43;;
30723;SDS011;17473;52.286;20.930;2023-06-14T04:26:29;14.77;;;6.50;;
30723;SDS011;17473;52.286;20.930;2023-06-14T04:28:56;7.43;;;5.50;;
30723;SDS011;17473;52.286;20.930;2023-06-14T04:31:30;6.65;;;5.90;;
30723;SDS011;17473;52.286;20.930;2023-06-14T04:34:00;10.02;;;6.20;;
30723;SDS011;17473;52.286;20.930;2023-06-14T04:36:27;6.78;;;5.13;;
30723;SDS011;17473;52.286;20.930;2023-06-14T04:38:54;7.55;;;5.40;;
30723;SDS011;17473;52.286;20.930;2023-06-14T04:41:21;10.15;;;5.72;;
30723;SDS011;17473;52.286;20.930;2023-06-14T04:43:49;7.53;;;5.55;;
30723;SDS011;17473;52.286;20.930;2023-06-14T04:46:16;10.48;;;6.07;;
30723;SDS011;17473;52.286;20.930;2023-06-14T04:48:43;10.18;;;7.45;;
30723;SDS011;17473;52.286;20.930;2023-06-14T04:51:12;11.90;;;8.55;;
30723;SDS011;17473;52.286;20.930;2023-06-14T04:53:39;14.85;;;7.78;;
30723;SDS011;17473;52.286;20.930;2023-06-14T04:56:06;7.68;;;5.82;;
30723;SDS011;17473;52.286;20.930;2023-06-14T04:58:33;18.75;;;6.85;;
30723;SDS011;17473;52.286;20.930;2023-06-14T05:01:01;11.95;;;6.38;;
30723;SDS011;17473;52.286;20.930;2023-06-14T05:03:29;9.73;;;6.50;;
30723;SDS011;17473;52.286;20.930;2023-06-14T05:05:57;11.13;;;5.93;;
30723;SDS011;17473;52.286;20.930;2023-06-14T05:08:24;10.23;;;6.38;;
30723;SDS011;17473;52.286;20.930;2023-06-14T05:10:52;7.82;;;6.25;;
30723;SDS011;17473;52.286;20.930;2023-06-14T05:13:19;10.85;;;5.78;;
30723;SDS011;17473;52.286;20.930;2023-06-14T05:15:48;11.32;;;5.65;;
30723;SDS011;17473;52.286;20.930;2023-06-14T05:18:15;11.30;;;5.75;;
30723;SDS011;17473;52.286;20.930;2023-06-14T05:20:42;13.32;;;6.32;;
30723;SDS011;17473;52.286;20.930;2023-06-14T05:23:09;6.95;;;5.90;;
30723;SDS011;17473;52.286;20.930;2023-06-14T05:25:45;8.38;;;6.25;;
30723;SDS011;17473;52.286;20.930;2023-06-14T05:28:13;11.63;;;6.72;;
30723;SDS011;17473;52.286;20.930;2023-06-14T05:30:40;9.45;;;6.30;;
30723;SDS011;17473;52.286;20.930;2023-06-14T05:33:07;12.30;;;6.03;;
30723;SDS011;17473;52.286;20.930;2023-06-14T05:35:35;12.40;;;5.90;;
30723;SDS011;17473;52.286;20.930;2023-06-14T05:38:02;8.02;;;6.18;;
30723;SDS011;17473;52.286;20.930;2023-06-14T05:40:29;10.40;;;6.70;;
30723;SDS011;17473;52.286;20.930;2023-06-14T05:42:56;16.60;;;6.53;;
30723;SDS011;17473;52.286;20.930;2023-06-14T05:45:23;10.57;;;6.82;;
30723;SDS011;17473;52.286;20.930;2023-06-14T05:47:50;8.52;;;6.72;;
30723;SDS011;17473;52.286;20.930;2023-06-14T05:50:20;10.48;;;6.93;;
30723;SDS011;17473;52.286;20.930;2023-06-14T05:52:48;16.35;;;6.28;;
30723;SDS011;17473;52.286;20.930;2023-06-14T05:55:16;13.45;;;7.03;;
30723;SDS011;17473;52.286;20.930;2023-06-14T05:57:44;8.50;;;6.07;;
30723;SDS011;17473;52.286;20.930;2023-06-14T06:00:11;7.43;;;6.35;;
30723;SDS011;17473;52.286;20.930;2023-06-14T06:02:44;13.50;;;6.82;;
30723;SDS011;17473;52.286;20.930;2023-06-14T06:05:12;14.35;;;6.53;;
30723;SDS011;17473;52.286;20.930;2023-06-14T06:07:42;9.75;;;6.85;;
30723;SDS011;17473;52.286;20.930;2023-06-14T06:10:12;7.93;;;6.43;;
30723;SDS011;17473;52.286;20.930;2023-06-14T06:12:40;8.70;;;6.32;;
30723;SDS011;17473;52.286;20.930;2023-06-14T06:15:08;8.90;;;5.93;;
30723;SDS011;17473;52.286;20.930;2023-06-14T06:17:39;9.30;;;6.30;;
30723;SDS011;17473;52.286;20.930;2023-06-14T06:20:21;13.70;;;7.22;;
30723;SDS011;17473;52.286;20.930;2023-06-14T06:22:56;12.20;;;6.90;;
30723;SDS011;17473;52.286;20.930;2023-06-14T06:25:27;17.27;;;9.02;;
30723;SDS011;17473;52.286;20.930;2023-06-14T06:27:54;13.10;;;6.55;;
30723;SDS011;17473;52.286;20.930;2023-06-14T06:30:25;13.60;;;6.75;;
30723;SDS011;17473;52.286;20.930;2023-06-14T06:32:52;11.43;;;6.50;;
30723;SDS011;17473;52.286;20.930;2023-06-14T06:35:20;11.98;;;6.68;;
30723;SDS011;17473;52.286;20.930;2023-06-14T06:37:47;13.70;;;7.13;;
30723;SDS011;17473;52.286;20.930;2023-06-14T06:40:14;12.70;;;7.70;;
30723;SDS011;17473;52.286;20.930;2023-06-14T06:42:41;10.38;;;7.43;;
30723;SDS011;17473;52.286;20.930;2023-06-14T06:45:09;9.40;;;7.38;;
30723;SDS011;17473;52.286;20.930;2023-06-14T06:47:36;11.38;;;6.55;;
30723;SDS011;17473;52.286;20.930;2023-06-14T06:50:03;9.27;;;6.38;;
30723;SDS011;17473;52.286;20.930;2023-06-14T06:52:32;10.63;;;6.60;;
30723;SDS011;17473;52.286;20.930;2023-06-14T06:54:59;14.50;;;6.65;;
30723;SDS011;17473;52.286;20.930;2023-06-14T06:57:27;11.75;;;7.50;;
30723;SDS011;17473;52.286;20.930;2023-06-14T06:59:55;15.68;;;7.18;;
30723;SDS011;17473;52.286;20.930;2023-06-14T07:02:23;13.50;;;6.93;;
30723;SDS011;17473;52.286;20.930;2023-06-14T07:04:50;10.45;;;7.85;;
30723;SDS011;17473;52.286;20.930;2023-06-14T07:07:18;10.98;;;7.28;;
30723;SDS011;17473;52.286;20.930;2023-06-14T07:09:45;11.90;;;7.80;;
30723;SDS011;17473;52.286;20.930;2023-06-14T07:12:12;10.27;;;7.68;;
30723;SDS011;17473;52.286;20.930;2023-06-14T07:14:39;11.30;;;6.65;;
30723;SDS011;17473;52.286;20.930;2023-06-14T07:17:06;10.98;;;7.30;;
30723;SDS011;17473;52.286;20.930;2023-06-14T07:19:33;10.35;;;7.43;;
30723;SDS011;17473;52.286;20.930;2023-06-14T07:22:01;8.32;;;6.88;;
30723;SDS011;17473;52.286;20.930;2023-06-14T07:24:28;9.65;;;7.50;;
30723;SDS011;17473;52.286;20.930;2023-06-14T07:26:55;16.58;;;7.43;;
30723;SDS011;17473;52.286;20.930;2023-06-14T07:29:22;14.73;;;7.45;;
30723;SDS011;17473;52.286;20.930;2023-06-14T07:31:50;12.23;;;7.10;;
30723;SDS011;17473;52.286;20.930;2023-06-14T07:34:17;11.68;;;7.45;;
30723;SDS011;17473;52.286;20.930;2023-06-14T07:36:44;8.23;;;7.28;;
30723;SDS011;17473;52.286;20.930;2023-06-14T07:39:11;15.18;;;7.65;;
30723;SDS011;17473;52.286;20.930;2023-06-14T07:41:38;13.68;;;6.93;;
30723;SDS011;17473;52.286;20.930;2023-06-14T07:44:05;11.27;;;6.75;;
30723;SDS011;17473;52.286;20.930;2023-06-14T07:46:33;13.13;;;7.47;;
30723;SDS011;17473;52.286;20.930;2023-06-14T07:49:00;11.77;;;6.82;;
30723;SDS011;17473;52.286;20.930;2023-06-14T07:51:28;16.80;;;7.10;;
30723;SDS011;17473;52.286;20.930;2023-06-14T07:53:55;11.30;;;6.80;;
30723;SDS011;17473;52.286;20.930;2023-06-14T07:56:22;11.63;;;6.13;;
30723;SDS011;17473;52.286;20.930;2023-06-14T07:58:49;9.48;;;6.63;;
30723;SDS011;17473;52.286;20.930;2023-06-14T08:01:16;14.30;;;6.68;;
30723;SDS011;17473;52.286;20.930;2023-06-14T08:03:45;10.30;;;6.90;;
30723;SDS011;17473;52.286;20.930;2023-06-14T08:06:12;7.82;;;6.25;;
30723;SDS011;17473;52.286;20.930;2023-06-14T08:08:40;10.88;;;6.47;;
30723;SDS011;17473;52.286;20.930;2023-06-14T08:11:07;11.40;;;6.05;;
30723;SDS011;17473;52.286;20.930;2023-06-14T08:13:34;8.25;;;5.78;;
30723;SDS011;17473;52.286;20.930;2023-06-14T08:16:01;13.77;;;6.72;;
30723;SDS011;17473;52.286;20.930;2023-06-14T08:18:31;10.25;;;6.35;;
30723;SDS011;17473;52.286;20.930;2023-06-14T08:20:58;10.15;;;5.90;;
30723;SDS011;17473;52.286;20.930;2023-06-14T08:23:25;8.63;;;6.10;;
30723;SDS011;17473;52.286;20.930;2023-06-14T08:25:53;11.68;;;6.35;;
30723;SDS011;17473;52.286;20.930;2023-06-14T08:28:20;10.45;;;7.00;;
30723;SDS011;17473;52.286;20.930;2023-06-14T08:30:47;9.25;;;7.43;;
30723;SDS011;17473;52.286;20.930;2023-06-14T08:33:14;9.90;;;6.22;;
30723;SDS011;17473;52.286;20.930;2023-06-14T08:35:43;14.52;;;6.82;;
30723;SDS011;17473;52.286;20.930;2023-06-14T08:38:10;16.25;;;7.20;;
30723;SDS011;17473;52.286;20.930;2023-06-14T08:40:38;10.77;;;5.85;;
30723;SDS011;17473;52.286;20.930;2023-06-14T08:43:08;9.43;;;6.13;;
30723;SDS011;17473;52.286;20.930;2023-06-14T08:45:35;11.93;;;6.82;;
30723;SDS011;17473;52.286;20.930;2023-06-14T08:48:03;8.73;;;6.07;;
30723;SDS011;17473;52.286;20.930;2023-06-14T08:50:31;11.77;;;6.40;;
30723;SDS011;17473;52.286;20.930;2023-06-14T08:53:01;8.32;;;5.65;;
30723;SDS011;17473;52.286;20.930;2023-06-14T08:55:30;10.38;;;6.57;;
30723;SDS011;17473;52.286;20.930;2023-06-14T08:58:02;13.52;;;6.85;;
30723;SDS011;17473;52.286;20.930;2023-06-14T09:00:31;10.88;;;5.22;;
30723;SDS011;17473;52.286;20.930;2023-06-14T09:03:00;10.95;;;6.78;;
30723;SDS011;17473;52.286;20.930;2023-06-14T09:05:27;12.18;;;5.78;;
30723;SDS011;17473;52.286;20.930;2023-06-14T09:07:55;9.05;;;5.22;;
30723;SDS011;17473;52.286;20.930;2023-06-14T09:10:30;6.45;;;4.90;;
30723;SDS011;17473;52.286;20.930;2023-06-14T09:13:01;8.63;;;5.15;;
30723;SDS011;17473;52.286;20.930;2023-06-14T09:15:29;8.48;;;5.10;;
30723;SDS011;17473;52.286;20.930;2023-06-14T09:17:58;11.23;;;5.60;;
30723;SDS011;17473;52.286;20.930;2023-06-14T09:20:30;8.32;;;4.88;;
30723;SDS011;17473;52.286;20.930;2023-06-14T09:22:57;10.65;;;5.03;;
30723;SDS011;17473;52.286;20.930;2023-06-14T09:25:27;7.57;;;5.18;;
30723;SDS011;17473;52.286;20.930;2023-06-14T09:28:08;11.38;;;5.07;;
30723;SDS011;17473;52.286;20.930;2023-06-14T09:30:39;9.63;;;5.00;;
30723;SDS011;17473;52.286;20.930;2023-06-14T09:33:06;8.88;;;4.53;;
30723;SDS011;17473;52.286;20.930;2023-06-14T09:35:34;9.07;;;4.60;;
30723;SDS011;17473;52.286;20.930;2023-06-14T09:38:02;15.48;;;5.13;;
30723;SDS011;17473;52.286;20.930;2023-06-14T09:40:33;6.93;;;4.88;;
30723;SDS011;17473;52.286;20.930;2023-06-14T09:43:05;11.88;;;4.95;;
30723;SDS011;17473;52.286;20.930;2023-06-14T09:45:37;7.13;;;3.95;;
30723;SDS011;17473;52.286;20.930;2023-06-14T09:48:11;5.78;;;4.10;;
30723;SDS011;17473;52.286;20.930;2023-06-14T09:50:47;8.50;;;4.15;;
30723;SDS011;17473;52.286;20.930;2023-06-14T09:53:17;12.48;;;4.25;;
30723;SDS011;17473;52.286;20.930;2023-06-14T09:55:49;6.45;;;4.00;;
30723;SDS011;17473;52.286;20.930;2023-06-14T09:58:19;8.73;;;3.92;;
30723;SDS011;17473;52.286;20.930;2023-06-14T10:00:49;10.20;;;4.55;;
30723;SDS011;17473;52.286;20.930;2023-06-14T10:03:27;8.15;;;5.18;;
30723;SDS011;17473;52.286;20.930;2023-06-14T10:06:09;8.95;;;5.20;;
30723;SDS011;17473;52.286;20.930;2023-06-14T10:08:37;8.23;;;4.50;;
30723;SDS011;17473;52.286;20.930;2023-06-14T10:11:05;8.13;;;5.00;;
30723;SDS011;17473;52.286;20.930;2023-06-14T10:13:33;19.33;;;4.80;;
30723;SDS011;17473;52.286;20.930;2023-06-14T10:16:10;9.07;;;5.03;;
30723;SDS011;17473;52.286;20.930;2023-06-14T10:18:51;9.50;;;5.18;;
30723;SDS011;17473;52.286;20.930;2023-06-14T10:22:06;6.90;;;4.57;;
30723;SDS011;17473;52.286;20.930;2023-06-14T10:24:43;11.93;;;4.82;;
30723;SDS011;17473;52.286;20.930;2023-06-14T10:27:14;9.18;;;4.95;;
30723;SDS011;17473;52.286;20.930;2023-06-14T10:32:23;12.98;;;4.78;;
30723;SDS011;17473;52.286;20.930;2023-06-14T10:34:55;7.88;;;4.50;;
30723;SDS011;17473;52.286;20.930;2023-06-14T10:37:25;10.00;;;3.83;;
30723;SDS011;17473;52.286;20.930;2023-06-14T10:39:52;7.78;;;4.03;;
30723;SDS011;17473;52.286;20.930;2023-06-14T10:42:20;9.48;;;4.05;;
30723;SDS011;17473;52.286;20.930;2023-06-14T10:44:49;4.82;;;3.17;;
30723;SDS011;17473;52.286;20.930;2023-06-14T10:47:29;6.03;;;3.92;;
30723;SDS011;17473;52.286;20.930;2023-06-14T10:52:33;9.48;;;3.67;;
30723;SDS011;17473;52.286;20.930;2023-06-14T11:00:23;6.72;;;3.53;;
30723;SDS011;17473;52.286;20.930;2023-06-14T11:11:13;8.23;;;3.38;;
30723;SDS011;17473;52.286;20.930;2023-06-14T11:13:42;6.88;;;3.28;;
30723;SDS011;17473;52.286;20.930;2023-06-14T11:16:12;6.10;;;3.38;;
30723;SDS011;17473;52.286;20.930;2023-06-14T11:18:42;7.80;;;3.55;;
30723;SDS011;17473;52.286;20.930;2023-06-14T11:21:10;6.55;;;4.15;;
30723;SDS011;17473;52.286;20.930;2023-06-14T11:23:37;12.57;;;3.90;;
30723;SDS011;17473;52.286;20.930;2023-06-14T11:26:04;9.98;;;4.22;;
30723;SDS011;17473;52.286;20.930;2023-06-14T11:28:35;8.80;;;4.68;;
30723;SDS011;17473;52.286;20.930;2023-06-14T11:31:04;9.07;;;4.18;;
30723;SDS011;17473;52.286;20.930;2023-06-14T11:33:31;10.48;;;4.45;;
30723;SDS011;17473;52.286;20.930;2023-06-14T11:36:01;7.85;;;3.42;;
30723;SDS011;17473;52.286;20.930;2023-06-14T11:38:34;5.72;;;3.35;;
30723;SDS011;17473;52.286;20.930;2023-06-14T11:41:03;7.40;;;3.03;;
30723;SDS011;17473;52.286;20.930;2023-06-14T11:43:31;11.30;;;3.63;;
30723;SDS011;17473;52.286;20.930;2023-06-14T11:46:00;10.20;;;3.47;;
30723;SDS011;17473;52.286;20.930;2023-06-14T11:48:41;6.07;;;2.88;;
30723;SDS011;17473;52.286;20.930;2023-06-14T11:51:09;7.57;;;3.00;;
30723;SDS011;17473;52.286;20.930;2023-06-14T11:53:37;5.25;;;3.00;;
30723;SDS011;17473;52.286;20.930;2023-06-14T11:56:05;4.50;;;2.80;;
30723;SDS011;17473;52.286;20.930;2023-06-14T11:58:32;5.22;;;3.05;;
30723;SDS011;17473;52.286;20.930;2023-06-14T12:00:59;9.93;;;2.50;;
30723;SDS011;17473;52.286;20.930;2023-06-14T12:03:29;8.80;;;2.70;;
30723;SDS011;17473;52.286;20.930;2023-06-14T12:06:04;4.30;;;2.90;;
30723;SDS011;17473;52.286;20.930;2023-06-14T12:08:35;7.07;;;2.90;;
30723;SDS011;17473;52.286;20.930;2023-06-14T12:11:10;3.65;;;2.40;;
30723;SDS011;17473;52.286;20.930;2023-06-14T12:13:43;4.22;;;2.45;;
30723;SDS011;17473;52.286;20.930;2023-06-14T12:16:11;9.70;;;3.50;;
30723;SDS011;17473;52.286;20.930;2023-06-14T12:18:39;9.88;;;2.90;;
30723;SDS011;17473;52.286;20.930;2023-06-14T12:21:08;5.68;;;2.88;;
30723;SDS011;17473;52.286;20.930;2023-06-14T12:23:42;8.77;;;2.97;;
30723;SDS011;17473;52.286;20.930;2023-06-14T12:26:16;4.03;;;3.35;;
30723;SDS011;17473;52.286;20.930;2023-06-14T12:28:46;3.53;;;2.53;;
30723;SDS011;17473;52.286;20.930;2023-06-14T12:31:15;2.95;;;2.35;;
30723;SDS011;17473;52.286;20.930;2023-06-14T12:33:43;3.90;;;2.45;;
30723;SDS011;17473;52.286;20.930;2023-06-14T12:36:12;8.18;;;2.58;;
30723;SDS011;17473;52.286;20.930;2023-06-14T12:38:40;7.38;;;3.03;;
30723;SDS011;17473;52.286;20.930;2023-06-14T12:41:07;9.10;;;2.78;;
30723;SDS011;17473;52.286;20.930;2023-06-14T12:43:34;10.48;;;2.90;;
30723;SDS011;17473;52.286;20.930;2023-06-14T12:46:01;6.60;;;3.55;;
30723;SDS011;17473;52.286;20.930;2023-06-14T12:48:29;10.77;;;3.10;;
30723;SDS011;17473;52.286;20.930;2023-06-14T12:50:57;4.80;;;3.05;;
30723;SDS011;17473;52.286;20.930;2023-06-14T12:53:25;3.53;;;2.92;;
30723;SDS011;17473;52.286;20.930;2023-06-14T12:55:52;8.15;;;3.50;;
30723;SDS011;17473;52.286;20.930;2023-06-14T12:58:19;7.22;;;3.58;;
30723;SDS011;17473;52.286;20.930;2023-06-14T13:00:46;4.63;;;3.00;;
30723;SDS011;17473;52.286;20.930;2023-06-14T13:03:14;6.97;;;3.10;;
30723;SDS011;17473;52.286;20.930;2023-06-14T13:05:41;4.65;;;3.40;;
30723;SDS011;17473;52.286;20.930;2023-06-14T13:08:09;4.55;;;2.88;;
30723;SDS011;17473;52.286;20.930;2023-06-14T13:10:36;3.25;;;2.85;;
30723;SDS011;17473;52.286;20.930;2023-06-14T13:13:03;4.07;;;2.45;;
30723;SDS011;17473;52.286;20.930;2023-06-14T13:15:31;7.97;;;2.80;;
30723;SDS011;17473;52.286;20.930;2023-06-14T13:17:58;4.43;;;2.78;;
30723;SDS011;17473;52.286;20.930;2023-06-14T13:20:25;7.43;;;2.55;;
30723;SDS011;17473;52.286;20.930;2023-06-14T13:22:52;7.28;;;2.67;;
30723;SDS011;17473;52.286;20.930;2023-06-14T13:25:19;7.20;;;2.70;;
30723;SDS011;17473;52.286;20.930;2023-06-14T13:27:46;8.85;;;3.00;;
30723;SDS011;17473;52.286;20.930;2023-06-14T13:30:14;3.55;;;2.75;;
30723;SDS011;17473;52.286;20.930;2023-06-14T13:32:41;4.25;;;3.33;;
30723;SDS011;17473;52.286;20.930;2023-06-14T13:35:09;6.43;;;3.30;;
30723;SDS011;17473;52.286;20.930;2023-06-14T13:37:36;10.10;;;2.70;;
30723;SDS011;17473;52.286;20.930;2023-06-14T13:40:03;9.15;;;3.65;;
30723;SDS011;17473;52.286;20.930;2023-06-14T13:42:32;7.47;;;3.13;;
30723;SDS011;17473;52.286;20.930;2023-06-14T13:44:59;5.00;;;3.25;;
30723;SDS011;17473;52.286;20.930;2023-06-14T13:47:26;8.43;;;3.05;;
30723;SDS011;17473;52.286;20.930;2023-06-14T13:49:53;4.10;;;3.13;;
30723;SDS011;17473;52.286;20.930;2023-06-14T13:52:21;7.57;;;3.38;;
30723;SDS011;17473;52.286;20.930;2023-06-14T13:54:48;5.50;;;3.60;;
30723;SDS011;17473;52.286;20.930;2023-06-14T13:57:16;5.95;;;3.42;;
30723;SDS011;17473;52.286;20.930;2023-06-14T13:59:43;6.10;;;3.45;;
30723;SDS011;17473;52.286;20.930;2023-06-14T14:02:11;6.93;;;2.95;;
30723;SDS011;17473;52.286;20.930;2023-06-14T14:04:39;8.27;;;3.30;;
30723;SDS011;17473;52.286;20.930;2023-06-14T14:07:07;6.55;;;3.40;;
30723;SDS011;17473;52.286;20.930;2023-06-14T14:09:35;6.78;;;2.88;;
30723;SDS011;17473;52.286;20.930;2023-06-14T14:12:03;7.22;;;3.20;;
30723;SDS011;17473;52.286;20.930;2023-06-14T14:14:32;9.73;;;3.55;;
30723;SDS011;17473;52.286;20.930;2023-06-14T14:16:59;5.65;;;3.08;;
30723;SDS011;17473;52.286;20.930;2023-06-14T14:19:26;5.10;;;2.97;;
30723;SDS011;17473;52.286;20.930;2023-06-14T14:21:53;3.40;;;2.20;;
30723;SDS011;17473;52.286;20.930;2023-06-14T14:24:21;3.85;;;2.70;;
30723;SDS011;17473;52.286;20.930;2023-06-14T14:26:49;7.32;;;2.88;;
30723;SDS011;17473;52.286;20.930;2023-06-14T14:29:17;4.55;;;3.08;;
30723;SDS011;17473;52.286;20.930;2023-06-14T14:31:44;6.45;;;3.15;;
30723;SDS011;17473;52.286;20.930;2023-06-14T14:34:11;5.75;;;2.58;;
30723;SDS011;17473;52.286;20.930;2023-06-14T14:36:38;5.03;;;3.15;;
30723;SDS011;17473;52.286;20.930;2023-06-14T14:39:08;5.95;;;3.10;;
30723;SDS011;17473;52.286;20.930;2023-06-14T14:41:36;7.72;;;2.78;;
30723;SDS011;17473;52.286;20.930;2023-06-14T14:44:07;5.88;;;3.97;;
30723;SDS011;17473;52.286;20.930;2023-06-14T14:46:34;8.80;;;4.20;;
30723;SDS011;17473;52.286;20.930;2023-06-14T14:49:02;5.15;;;3.70;;
30723;SDS011;17473;52.286;20.930;2023-06-14T14:51:29;5.88;;;3.47;;
30723;SDS011;17473;52.286;20.930;2023-06-14T14:53:56;5.57;;;3.72;;
30723;SDS011;17473;52.286;20.930;2023-06-14T14:56:23;5.95;;;3.50;;
30723;SDS011;17473;52.286;20.930;2023-06-14T14:58:52;8.25;;;3.13;;
30723;SDS011;17473;52.286;20.930;2023-06-14T15:01:19;7.07;;;3.30;;